Time;durP1;ratioP1;P1;durP2;ratioP2;P2;SDS_P1;SDS_P2;PMS_P1;PMS_P2;Temp;Humidity;BMP_temperature;BMP_pressure;BME280_temperature;BME280_humidity;BME280_pressure;Samples;Min_cycle;Max_cycle;Signal;HPM_P1;HPM_P2
2023/10/28 00:00:59;;;;;;;62.90;22.85;;;9.70;99.90;;;;;;5052152;28;20095;-53
2023/10/28 00:03:26;;;;;;;62.50;22.25;;;9.90;99.90;;;;;;5051733;28;20489;-54
2023/10/28 00:05:51;;;;;;;80.20;38.38;;;9.50;99.90;;;;;;5051754;28;20111;-55
2023/10/28 00:08:17;;;;;;;62.22;21.42;;;9.60;99.90;;;;;;5050851;28;20591;-53
2023/10/28 00:10:44;;;;;;;79.28;39.10;;;9.90;99.90;;;;;;5052081;28;20045;-54
2023/10/28 00:13:11;;;;;;;48.83;19.08;;;9.80;99.90;;;;;;5052027;28;20431;-55
2023/10/28 00:15:38;;;;;;;54.85;18.63;;;9.80;99.90;;;;;;5051915;28;20033;-53
2023/10/28 00:18:05;;;;;;;64.45;19.65;;;9.70;99.90;;;;;;5033326;28;20040;-53
2023/10/28 00:20:32;;;;;;;50.90;18.35;;;9.40;99.90;;;;;;5051678;28;20044;-54
2023/10/28 00:22:58;;;;;;;50.25;18.48;;;9.40;99.90;;;;;;5051737;28;20037;-56
2023/10/28 00:25:29;;;;;;;51.05;19.40;;;9.90;99.90;;;;;;5051545;28;20547;-53
2023/10/28 00:27:55;;;;;;;59.60;31.50;;;9.80;99.90;;;;;;5051537;28;20041;-55
2023/10/28 00:30:22;;;;;;;50.05;17.65;;;9.90;99.90;;;;;;5050065;28;20049;-53
2023/10/28 00:32:49;;;;;;;55.65;30.50;;;9.90;99.90;;;;;;5051456;28;20044;-52
2023/10/28 00:35:15;;;;;;;50.60;29.38;;;9.80;99.90;;;;;;5051232;28;20036;-55
2023/10/28 00:37:42;;;;;;;47.70;17.23;;;9.60;99.90;;;;;;5051679;28;20766;-54
2023/10/28 00:40:08;;;;;;;44.53;15.88;;;9.30;99.90;;;;;;5033740;28;20500;-53
2023/10/28 00:42:35;;;;;;;43.58;15.60;;;9.90;99.90;;;;;;5051123;28;20472;-54
2023/10/28 00:45:06;;;;;;;42.95;17.40;;;9.70;99.90;;;;;;5051251;28;20043;-52
2023/10/28 00:47:44;;;;;;;44.00;15.70;;;9.30;99.90;;;;;;5050845;28;20051;-53
2023/10/28 00:50:14;;;;;;;44.28;16.13;;;9.40;99.90;;;;;;5051328;28;20500;-51
2023/10/28 00:52:42;;;;;;;53.55;28.58;;;9.30;99.90;;;;;;5051199;28;20064;-53
2023/10/28 00:55:10;;;;;;;49.75;28.67;;;9.80;99.90;;;;;;5033140;28;20040;-54
2023/10/28 00:57:39;;;;;;;44.78;15.60;;;9.80;99.90;;;;;;5051201;28;20037;-56
2023/10/28 01:00:06;;;;;;;38.90;13.90;;;9.70;99.90;;;;;;5033494;28;20472;-53
2023/10/28 01:02:36;;;;;;;41.38;16.40;;;9.80;99.90;;;;;;5050893;28;20040;-54
2023/10/28 01:05:03;;;;;;;37.92;15.55;;;9.50;99.90;;;;;;5050755;28;20053;-55
2023/10/28 01:07:31;;;;;;;39.33;15.32;;;9.70;99.90;;;;;;5050720;28;20072;-53
2023/10/28 01:09:57;;;;;;;47.95;27.33;;;9.60;99.90;;;;;;5051100;28;20044;-54
2023/10/28 01:12:23;;;;;;;41.97;15.60;;;9.40;99.90;;;;;;5050803;28;20484;-53
2023/10/28 01:14:50;;;;;;;40.42;16.25;;;9.20;99.90;;;;;;5050261;28;20106;-56
2023/10/28 01:17:16;;;;;;;42.67;15.80;;;9.30;99.90;;;;;;5031763;28;20489;-52
2023/10/28 01:19:42;;;;;;;41.20;17.00;;;9.70;99.90;;;;;;5049473;28;20068;-53
2023/10/28 01:22:08;;;;;;;41.22;16.80;;;9.50;99.90;;;;;;5050083;28;20072;-53
2023/10/28 01:24:35;;;;;;;35.38;15.50;;;9.70;99.90;;;;;;5050698;28;20071;-54
2023/10/28 01:27:01;;;;;;;36.10;16.48;;;9.10;99.90;;;;;;5046039;28;20551;-53
2023/10/28 01:29:28;;;;;;;46.42;27.95;;;9.20;99.90;;;;;;5049366;28;20037;-53
2023/10/28 01:31:54;;;;;;;43.63;15.75;;;9.60;99.90;;;;;;5049844;28;20037;-55
2023/10/28 01:34:22;;;;;;;49.28;28.60;;;9.60;99.90;;;;;;5050430;28;20052;-53
2023/10/28 01:36:48;;;;;;;47.75;28.63;;;9.10;99.90;;;;;;5050587;28;20400;-53
2023/10/28 01:39:15;;;;;;;33.35;14.88;;;9.10;99.90;;;;;;5050643;28;20041;-52
2023/10/28 01:41:42;;;;;;;39.35;14.50;;;9.60;99.90;;;;;;5032633;28;20099;-54
2023/10/28 01:44:08;;;;;;;49.72;29.08;;;9.60;99.90;;;;;;5050225;28;20469;-51
2023/10/28 01:46:34;;;;;;;32.10;13.85;;;9.10;99.90;;;;;;5050347;28;20037;-55
2023/10/28 01:49:00;;;;;;;40.25;14.98;;;9.60;99.90;;;;;;5050263;28;20465;-56
2023/10/28 01:51:26;;;;;;;38.72;15.52;;;9.10;99.90;;;;;;5050076;28;20411;-55
2023/10/28 01:53:52;;;;;;;38.00;14.90;;;9.00;99.90;;;;;;5032225;28;20055;-53
2023/10/28 01:56:18;;;;;;;35.53;15.10;;;9.00;99.90;;;;;;5050176;28;20041;-56
2023/10/28 01:58:43;;;;;;;34.58;14.50;;;9.50;99.90;;;;;;5049947;28;20047;-51
2023/10/28 02:01:10;;;;;;;33.90;13.98;;;8.90;99.90;;;;;;5050280;28;20423;-55
2023/10/28 02:03:35;;;;;;;36.92;15.00;;;9.40;99.90;;;;;;5050267;28;20122;-55
2023/10/28 02:06:01;;;;;;;42.05;15.02;;;8.90;99.90;;;;;;5050402;28;20072;-54
2023/10/28 02:08:27;;;;;;;38.63;14.48;;;9.10;99.90;;;;;;5049968;28;20450;-54
2023/10/28 02:10:52;;;;;;;41.10;14.85;;;9.30;99.90;;;;;;5049175;28;20112;-53
2023/10/28 02:13:18;;;;;;;29.00;14.15;;;9.40;99.90;;;;;;5032331;28;20090;-54
2023/10/28 02:15:51;;;;;;;34.85;13.95;;;8.90;99.90;;;;;;5050211;28;20486;-56
2023/10/28 02:18:18;;;;;;;33.92;13.68;;;8.90;99.90;;;;;;5049512;28;20094;-53
2023/10/28 02:20:44;;;;;;;35.80;15.45;;;9.10;99.90;;;;;;5031570;28;20443;-56
2023/10/28 02:23:13;;;;;;;35.33;14.45;;;9.10;99.90;;;;;;5049377;28;20049;-52
2023/10/28 02:25:41;;;;;;;36.58;24.33;;;9.30;99.90;;;;;;5049444;28;20127;-53
2023/10/28 02:28:09;;;;;;;29.33;13.48;;;9.40;99.90;;;;;;5049665;28;20476;-56
2023/10/28 02:30:40;;;;;;;34.13;14.73;;;9.00;99.90;;;;;;5051278;28;20041;-54
2023/10/28 02:33:07;;;;;;;32.05;13.98;;;9.40;99.90;;;;;;5053666;28;20408;-54
2023/10/28 02:35:34;;;;;;;29.30;13.52;;;9.50;99.90;;;;;;5053977;28;20443;-56
2023/10/28 02:37:59;;;;;;;35.05;14.60;;;9.30;99.90;;;;;;5053134;28;20055;-54
2023/10/28 02:40:25;;;;;;;43.58;26.08;;;8.90;99.90;;;;;;5053213;28;20548;-55
2023/10/28 02:42:51;;;;;;;35.30;14.63;;;9.30;99.90;;;;;;5052933;28;20037;-55
2023/10/28 02:45:16;;;;;;;40.28;14.63;;;9.50;99.90;;;;;;5053649;28;20037;-54
2023/10/28 02:47:42;;;;;;;34.63;14.25;;;9.20;99.90;;;;;;5052554;28;20037;-52
2023/10/28 02:50:09;;;;;;;33.90;14.60;;;9.10;99.90;;;;;;5052254;28;20090;-54
2023/10/28 02:52:35;;;;;;;35.08;24.30;;;9.10;99.90;;;;;;5052281;28;20639;-54
2023/10/28 02:55:01;;;;;;;33.67;14.63;;;9.70;99.90;;;;;;5052959;28;20037;-53
2023/10/28 02:57:26;;;;;;;31.70;14.13;;;9.40;99.90;;;;;;5053104;28;20052;-53
2023/10/28 02:59:52;;;;;;;38.38;15.55;;;9.30;99.90;;;;;;5052849;28;20033;-56
2023/10/28 03:02:18;;;;;;;40.00;14.85;;;9.70;99.90;;;;;;5035192;28;20057;-54
2023/10/28 03:04:44;;;;;;;39.25;15.23;;;9.20;99.90;;;;;;5052710;28;20037;-51
2023/10/28 03:07:10;;;;;;;35.35;14.52;;;9.40;99.90;;;;;;5052642;28;20070;-56
2023/10/28 03:09:35;;;;;;;41.40;16.00;;;9.20;99.90;;;;;;5053072;28;20086;-56
2023/10/28 03:12:02;;;;;;;35.08;14.85;;;9.60;99.90;;;;;;5052956;28;20041;-54
2023/10/28 03:14:28;;;;;;;35.85;14.82;;;9.20;99.90;;;;;;5052972;28;20041;-55
2023/10/28 03:16:54;;;;;;;40.45;16.25;;;9.30;99.90;;;;;;5052602;28;20095;-51
2023/10/28 03:19:19;;;;;;;36.67;14.82;;;9.20;99.90;;;;;;5052020;28;20480;-52
2023/10/28 03:21:45;;;;;;;40.28;15.00;;;9.60;99.90;;;;;;5051683;28;20435;-52
2023/10/28 03:24:11;;;;;;;38.00;15.02;;;9.30;99.90;;;;;;5052734;28;20036;-50
2023/10/28 03:26:36;;;;;;;34.15;15.30;;;9.30;99.90;;;;;;5051878;28;20404;-50
2023/10/28 03:29:02;;;;;;;38.75;14.88;;;9.80;99.90;;;;;;5052656;28;20040;-54
2023/10/28 03:31:28;;;;;;;39.92;25.38;;;9.30;99.90;;;;;;5052202;28;20044;-53
2023/10/28 03:33:54;;;;;;;42.08;14.95;;;9.30;99.90;;;;;;5052363;28;20037;-52
2023/10/28 03:36:21;;;;;;;36.00;15.35;;;9.30;99.90;;;;;;5051328;28;20094;-53
2023/10/28 03:38:47;;;;;;;39.78;15.75;;;9.30;99.90;;;;;;5051915;28;20473;-53
2023/10/28 03:41:13;;;;;;;30.80;15.07;;;9.90;99.90;;;;;;5033910;28;20102;-54
2023/10/28 03:43:39;;;;;;;37.88;15.75;;;9.40;99.90;;;;;;5050625;28;20037;-52
2023/10/28 03:46:05;;;;;;;37.45;15.07;;;9.30;99.90;;;;;;5051771;28;20047;-53
2023/10/28 03:48:31;;;;;;;40.42;15.52;;;9.70;99.90;;;;;;5051288;28;20033;-50
2023/10/28 03:51:03;;;;;;;41.35;15.80;;;9.80;99.90;;;;;;5051934;28;20117;-54
2023/10/28 03:53:28;;;;;;;41.38;16.05;;;9.50;99.90;;;;;;5033747;28;20095;-54
2023/10/28 03:55:54;;;;;;;43.63;27.27;;;9.30;99.90;;;;;;5052312;28;20053;-53
2023/10/28 03:58:20;;;;;;;48.78;27.23;;;9.90;99.90;;;;;;5032955;28;20044;-53
2023/10/28 04:00:50;;;;;;;40.58;15.57;;;9.90;99.90;;;;;;5051726;28;20124;-54
2023/10/28 04:03:15;;;;;;;40.10;14.93;;;9.30;99.90;;;;;;5051848;28;20098;-53
2023/10/28 04:05:41;;;;;;;39.45;15.32;;;9.90;99.90;;;;;;5051605;28;20033;-54
2023/10/28 04:08:07;;;;;;;47.55;27.92;;;9.70;99.90;;;;;;5051603;28;20472;-54
2023/10/28 04:10:33;;;;;;;35.88;15.45;;;9.40;99.90;;;;;;5051138;28;20465;-53
2023/10/28 04:13:00;;;;;;;45.92;16.55;;;9.50;99.90;;;;;;5051506;28;20052;-54
2023/10/28 04:15:26;;;;;;;48.63;28.27;;;9.30;99.90;;;;;;5051367;28;20167;-57
2023/10/28 04:17:51;;;;;;;42.25;15.32;;;10.00;99.90;;;;;;5033135;28;20532;-55
2023/10/28 04:20:17;;;;;;;38.65;15.02;;;9.50;99.90;;;;;;5051655;28;20122;-51
2023/10/28 04:22:43;;;;;;;38.95;15.85;;;9.40;99.90;;;;;;5051632;28;20040;-54
2023/10/28 04:25:09;;;;;;;35.22;16.02;;;10.00;99.90;;;;;;5051653;28;20045;-53
2023/10/28 04:27:35;;;;;;;44.13;27.08;;;10.00;99.90;;;;;;5016611;28;20068;-55
2023/10/28 04:30:04;;;;;;;38.40;15.57;;;9.60;99.90;;;;;;5050744;28;20116;-54
2023/10/28 04:32:30;;;;;;;40.15;16.50;;;9.50;99.90;;;;;;5050477;28;20400;-55
2023/10/28 04:34:57;;;;;;;38.40;15.32;;;9.90;99.90;;;;;;5049788;28;20583;-54
2023/10/28 04:37:22;;;;;;;51.03;17.40;;;9.50;99.90;;;;;;5033679;28;20052;-53
2023/10/28 04:39:49;;;;;;;49.42;28.20;;;9.50;99.90;;;;;;5051522;28;20067;-55
2023/10/28 04:42:15;;;;;;;51.65;16.30;;;9.90;99.90;;;;;;5050652;28;20049;-56
2023/10/28 04:44:41;;;;;;;54.55;28.02;;;9.60;99.90;;;;;;5032095;28;20408;-56
2023/10/28 04:47:06;;;;;;;43.70;15.40;;;9.90;99.90;;;;;;5050621;28;20032;-51
2023/10/28 04:49:32;;;;;;;48.67;26.63;;;9.90;99.90;;;;;;5051318;28;20044;-55
2023/10/28 04:51:57;;;;;;;39.50;15.52;;;10.20;99.90;;;;;;5050354;28;20055;-52
2023/10/28 04:54:23;;;;;;;45.85;16.42;;;10.10;99.90;;;;;;5050697;28;20072;-52
2023/10/28 04:56:49;;;;;;;48.33;16.80;;;10.20;99.90;;;;;;5050167;28;20033;-56
2023/10/28 04:59:15;;;;;;;52.55;29.17;;;9.70;99.90;;;;;;5050995;28;20086;-55
2023/10/28 05:01:41;;;;;;;47.90;29.70;;;9.80;99.90;;;;;;5050916;28;20033;-54
2023/10/28 05:04:10;;;;;;;43.00;15.75;;;9.90;99.90;;;;;;5051110;28;20391;-53
2023/10/28 05:06:36;;;;;;;44.10;16.52;;;9.70;99.90;;;;;;5049894;28;20469;-53
2023/10/28 05:09:02;;;;;;;45.60;27.60;;;10.00;99.90;;;;;;5050734;28;20037;-54
2023/10/28 05:11:28;;;;;;;41.03;15.48;;;10.30;99.90;;;;;;5050914;28;20068;-50
2023/10/28 05:13:54;;;;;;;40.42;16.63;;;9.90;99.90;;;;;;5050635;28;20069;-52
2023/10/28 05:16:19;;;;;;;53.05;16.95;;;9.70;99.90;;;;;;5051015;28;20098;-51
2023/10/28 05:18:45;;;;;;;37.97;16.40;;;9.70;99.90;;;;;;5050437;28;20079;-57
2023/10/28 05:21:11;;;;;;;38.58;14.85;;;9.70;99.90;;;;;;5051192;28;20079;-55
2023/10/28 05:23:38;;;;;;;36.95;15.45;;;10.30;99.90;;;;;;5032237;28;20048;-56
2023/10/28 05:26:07;;;;;;;44.85;15.98;;;10.00;99.90;;;;;;5050965;28;20055;-58
2023/10/28 05:28:33;;;;;;;34.13;15.30;;;10.30;99.90;;;;;;5050502;28;20476;-53
2023/10/28 05:30:58;;;;;;;35.85;15.00;;;10.10;99.90;;;;;;5015873;28;20044;-55
2023/10/28 05:33:24;;;;;;;38.40;15.20;;;10.00;99.90;;;;;;5050611;28;20507;-55
2023/10/28 05:35:51;;;;;;;33.72;14.35;;;10.30;99.90;;;;;;5050548;28;20041;-54
2023/10/28 05:38:17;;;;;;;38.08;14.45;;;9.70;99.90;;;;;;5050584;28;20103;-55
2023/10/28 05:40:43;;;;;;;33.10;23.73;;;9.70;99.90;;;;;;5050527;28;20048;-51
2023/10/28 05:43:09;;;;;;;37.65;23.38;;;10.00;99.90;;;;;;5050387;28;20120;-54
2023/10/28 05:45:35;;;;;;;32.53;13.70;;;9.70;99.90;;;;;;5049389;28;20092;-55
2023/10/28 05:48:03;;;;;;;31.45;12.73;;;9.80;99.90;;;;;;5049600;28;20041;-51
2023/10/28 05:50:29;;;;;;;29.33;12.60;;;10.30;99.90;;;;;;5050001;28;20049;-54
2023/10/28 05:52:55;;;;;;;33.75;12.85;;;9.80;99.90;;;;;;5050242;28;20466;-51
2023/10/28 05:55:22;;;;;;;29.52;19.95;;;9.80;99.90;;;;;;5050098;28;20041;-54
2023/10/28 05:57:47;;;;;;;26.13;11.82;;;9.70;99.90;;;;;;5048952;28;20045;-53
2023/10/28 06:00:13;;;;;;;31.30;19.25;;;9.90;99.90;;;;;;5050439;28;20047;-56
2023/10/28 06:02:40;;;;;;;33.92;19.77;;;10.00;99.90;;;;;;5050284;28;20037;-55
2023/10/28 06:05:06;;;;;;;28.67;11.48;;;10.10;99.90;;;;;;5050329;28;20485;-55
2023/10/28 06:07:33;;;;;;;27.40;17.95;;;9.90;99.90;;;;;;5035861;28;20044;-54
2023/10/28 06:09:58;;;;;;;23.08;10.90;;;9.80;99.90;;;;;;5053964;28;20480;-53
2023/10/28 06:12:25;;;;;;;30.58;11.82;;;9.80;99.90;;;;;;5036046;28;20075;-53
2023/10/28 06:14:51;;;;;;;26.65;11.32;;;10.30;99.90;;;;;;5054452;28;20136;-53
2023/10/28 06:17:17;;;;;;;26.50;17.17;;;9.70;99.90;;;;;;5054449;28;20045;-52
2023/10/28 06:19:43;;;;;;;22.33;10.95;;;10.00;99.90;;;;;;5053661;28;20076;-50
2023/10/28 06:22:11;;;;;;;23.88;17.30;;;10.30;99.90;;;;;;5053668;28;20090;-57
2023/10/28 06:24:40;;;;;;;23.23;9.82;;;10.10;99.90;;;;;;5053889;28;20052;-54
2023/10/28 06:27:07;;;;;;;24.20;9.88;;;9.80;99.90;;;;;;5035344;28;20084;-56
2023/10/28 06:29:32;;;;;;;20.15;8.88;;;9.70;99.90;;;;;;5035830;28;20044;-51
2023/10/28 06:31:58;;;;;;;20.20;9.20;;;10.00;99.90;;;;;;5053463;28;20104;-56
2023/10/28 06:34:28;;;;;;;18.73;8.93;;;10.00;99.90;;;;;;5053699;28;20069;-53
2023/10/28 06:36:54;;;;;;;26.10;9.10;;;9.80;99.90;;;;;;5053631;28;20048;-58
2023/10/28 06:39:21;;;;;;;17.40;8.43;;;9.60;99.90;;;;;;5053657;28;20048;-52
2023/10/28 06:41:47;;;;;;;19.63;13.48;;;9.60;99.90;;;;;;5053598;28;20044;-54
2023/10/28 06:44:13;;;;;;;18.42;8.50;;;9.70;99.90;;;;;;5053776;28;20043;-53
2023/10/28 06:46:39;;;;;;;17.90;8.40;;;9.60;99.90;;;;;;5052036;28;20033;-57
2023/10/28 06:49:05;;;;;;;17.20;8.65;;;9.90;99.90;;;;;;5053017;28;20400;-52
2023/10/28 06:51:32;;;;;;;18.25;13.32;;;9.90;99.90;;;;;;5053206;28;20059;-54
2023/10/28 06:53:58;;;;;;;20.73;8.00;;;9.80;99.90;;;;;;5053607;28;20182;-50
2023/10/28 06:56:27;;;;;;;20.52;8.57;;;9.90;99.90;;;;;;5033450;28;20474;-53
2023/10/28 06:58:52;;;;;;;17.10;12.35;;;10.00;99.90;;;;;;5052661;28;20407;-57
2023/10/28 07:01:19;;;;;;;17.17;7.80;;;9.60;99.90;;;;;;5048528;28;20041;-55
2023/10/28 07:03:45;;;;;;;16.88;8.10;;;9.80;99.90;;;;;;5032694;28;20053;-54
2023/10/28 07:06:14;;;;;;;17.45;7.70;;;10.10;99.90;;;;;;5053048;28;20037;-54
2023/10/28 07:08:46;;;;;;;14.57;7.47;;;9.60;99.90;;;;;;5044329;28;20158;-55
2023/10/28 07:11:12;;;;;;;16.13;8.00;;;9.70;99.90;;;;;;5040542;28;20087;-56
2023/10/28 07:13:38;;;;;;;15.75;7.72;;;9.60;99.90;;;;;;5042151;28;20037;-54
2023/10/28 07:16:04;;;;;;;14.70;7.63;;;9.80;99.90;;;;;;5037676;28;20435;-54
2023/10/28 07:18:31;;;;;;;16.02;8.05;;;9.70;99.90;;;;;;5043763;28;20076;-55
2023/10/28 07:20:57;;;;;;;17.48;7.88;;;9.80;99.90;;;;;;5031636;28;20060;-56
2023/10/28 07:23:26;;;;;;;16.23;7.85;;;10.00;99.90;;;;;;5026641;28;20055;-55
2023/10/28 07:25:53;;;;;;;21.75;8.40;;;9.90;99.90;;;;;;5001954;28;20037;-55
2023/10/28 07:28:20;;;;;;;15.65;7.70;;;10.30;99.90;;;;;;5042925;28;20045;-54
2023/10/28 07:30:48;;;;;;;16.17;8.23;;;10.20;99.90;;;;;;5043040;28;20040;-54
2023/10/28 07:33:14;;;;;;;16.80;7.82;;;10.30;99.90;;;;;;5043016;28;20040;-54
2023/10/28 07:35:47;;;;;;;14.48;6.80;;;9.90;99.90;;;;;;5042082;28;20077;-54
2023/10/28 07:38:14;;;;;;;15.00;7.00;;;10.30;99.90;;;;;;5026562;28;20072;-53
2023/10/28 07:40:47;;;;;;;15.20;6.97;;;10.40;99.90;;;;;;5042774;28;20090;-57
2023/10/28 07:43:13;;;;;;;21.40;7.55;;;9.80;99.90;;;;;;5026526;28;20033;-54
2023/10/28 07:45:40;;;;;;;16.17;6.88;;;9.90;99.90;;;;;;5042597;28;20488;-53
2023/10/28 07:48:06;;;;;;;14.73;6.72;;;10.50;99.90;;;;;;5042155;28;20492;-52
2023/10/28 07:50:33;;;;;;;16.08;8.45;;;10.00;99.90;;;;;;5042952;28;20078;-50
2023/10/28 07:52:59;;;;;;;15.90;6.40;;;10.30;99.90;;;;;;5044125;28;20064;-56
2023/10/28 07:55:25;;;;;;;13.20;7.07;;;10.10;99.90;;;;;;5024320;28;20034;-52
2023/10/28 07:57:51;;;;;;;13.48;6.63;;;10.60;99.90;;;;;;5042700;28;20467;-56
2023/10/28 08:00:17;;;;;;;14.07;6.97;;;10.30;99.90;;;;;;5040992;28;20182;-53
2023/10/28 08:02:44;;;;;;;13.25;6.38;;;10.20;99.90;;;;;;5040244;28;20122;-56
2023/10/28 08:05:10;;;;;;;14.00;9.73;;;10.20;99.90;;;;;;5024552;28;20044;-54
2023/10/28 08:07:37;;;;;;;12.70;6.43;;;10.70;99.90;;;;;;5041151;28;20106;-54
2023/10/28 08:10:04;;;;;;;11.90;6.35;;;10.70;99.90;;;;;;5023068;28;21264;-55
2023/10/28 08:12:30;;;;;;;15.35;6.43;;;10.30;99.90;;;;;;5042288;28;20460;-55
2023/10/28 08:14:56;;;;;;;17.23;6.90;;;10.50;99.90;;;;;;5042039;28;20032;-57
2023/10/28 08:17:22;;;;;;;14.45;6.88;;;10.90;99.90;;;;;;5032177;28;20037;-54
2023/10/28 08:19:48;;;;;;;13.10;8.32;;;10.40;99.90;;;;;;5034209;28;20037;-53
2023/10/28 08:22:14;;;;;;;13.27;6.43;;;10.80;99.90;;;;;;5039768;28;20047;-54
2023/10/28 08:24:41;;;;;;;11.13;5.93;;;10.60;99.90;;;;;;5025802;28;20055;-54
2023/10/28 08:27:08;;;;;;;13.50;8.27;;;10.50;99.90;;;;;;5025392;28;20044;-53
2023/10/28 08:29:34;;;;;;;13.63;8.20;;;10.70;99.90;;;;;;5025289;28;20033;-53
2023/10/28 08:32:00;;;;;;;9.88;5.57;;;11.10;99.90;;;;;;5042492;28;20037;-56
2023/10/28 08:34:26;;;;;;;12.90;5.55;;;10.60;99.90;;;;;;5042395;28;20032;-56
2023/10/28 08:36:54;;;;;;;12.75;5.80;;;11.00;99.90;;;;;;5040659;28;20029;-56
2023/10/28 08:39:20;;;;;;;13.52;8.10;;;10.80;99.90;;;;;;5042706;28;20109;-53
2023/10/28 08:41:49;;;;;;;13.73;5.45;;;10.70;99.90;;;;;;5041938;28;20464;-57
2023/10/28 08:44:17;;;;;;;16.42;8.02;;;10.80;99.90;;;;;;5041639;28;20036;-53
2023/10/28 08:46:44;;;;;;;11.05;7.32;;;11.10;99.90;;;;;;5040938;28;20482;-55
2023/10/28 08:49:14;;;;;;;12.00;5.10;;;10.80;99.90;;;;;;5041188;28;20056;-57
2023/10/28 08:51:48;;;;;;;14.05;6.13;;;11.10;99.90;;;;;;5042253;28;20093;-56
2023/10/28 08:54:16;;;;;;;11.73;5.68;;;10.90;99.90;;;;;;5041967;28;20495;-56
2023/10/28 08:56:43;;;;;;;12.13;7.50;;;11.10;99.90;;;;;;5042138;28;20033;-54
2023/10/28 08:59:10;;;;;;;11.30;4.80;;;11.10;99.90;;;;;;5038687;28;20033;-54
2023/10/28 09:01:37;;;;;;;12.30;5.40;;;11.10;99.90;;;;;;5040269;28;20052;-51
2023/10/28 09:04:05;;;;;;;10.68;5.38;;;11.60;99.90;;;;;;5042047;28;20058;-54
2023/10/28 09:06:34;;;;;;;11.13;6.80;;;11.70;99.90;;;;;;5042037;28;20674;-56
2023/10/28 09:09:00;;;;;;;12.38;4.68;;;11.70;99.90;;;;;;5043168;28;20098;-54
2023/10/28 09:11:27;;;;;;;8.77;4.97;;;11.80;99.90;;;;;;5041911;28;20044;-54
2023/10/28 09:13:53;;;;;;;13.30;5.05;;;11.30;99.90;;;;;;5048064;28;20477;-53
2023/10/28 09:16:19;;;;;;;10.40;4.93;;;11.40;99.90;;;;;;5047529;28;20040;-51
2023/10/28 09:18:45;;;;;;;10.82;5.40;;;11.60;99.90;;;;;;5046959;28;20100;-52
2023/10/28 09:21:12;;;;;;;10.57;6.75;;;11.30;99.90;;;;;;5049208;28;20032;-53
2023/10/28 09:23:43;;;;;;;10.57;6.25;;;11.30;99.90;;;;;;5051005;28;20044;-53
2023/10/28 09:26:09;;;;;;;9.60;5.30;;;11.40;99.90;;;;;;5050756;28;20747;-56
2023/10/28 09:28:35;;;;;;;10.65;5.55;;;11.50;99.90;;;;;;5050907;28;20033;-57
2023/10/28 09:31:01;;;;;;;11.63;5.20;;;11.30;99.90;;;;;;5050746;28;20029;-54
2023/10/28 09:33:30;;;;;;;12.68;6.22;;;11.80;99.90;;;;;;5050710;28;20123;-57
2023/10/28 09:35:56;;;;;;;11.07;6.85;;;11.60;99.90;;;;;;5049775;28;20041;-56
2023/10/28 09:38:24;;;;;;;8.73;6.25;;;11.40;99.90;;;;;;5049795;28;20102;-55
2023/10/28 09:40:50;;;;;;;9.70;4.60;;;11.40;99.90;;;;;;5053456;28;20051;-51
2023/10/28 09:43:16;;;;;;;12.90;6.20;;;11.80;99.90;;;;;;5054880;28;20403;-53
2023/10/28 09:45:50;;;;;;;9.85;6.00;;;11.60;99.90;;;;;;5054511;28;20485;-53
2023/10/28 09:48:17;;;;;;;;;;;11.50;99.90;;;;;;5054826;28;20401;-55
2023/10/28 09:50:50;;;;;;;10.10;4.28;;;11.80;99.90;;;;;;5054598;28;19939;-56
2023/10/28 09:53:21;;;;;;;13.55;4.93;;;11.70;99.90;;;;;;5054883;28;20084;-53
2023/10/28 09:55:49;;;;;;;13.77;4.63;;;11.50;99.90;;;;;;5054910;28;20500;-51
2023/10/28 09:58:27;;;;;;;9.18;4.47;;;12.00;99.90;;;;;;5054629;28;20391;-56
2023/10/28 10:01:02;;;;;;;10.73;4.80;;;11.60;99.90;;;;;;5053764;28;20115;-52
2023/10/28 10:04:02;;;;;;;15.70;4.78;;;11.70;99.90;;;;;;5050196;28;20086;-56
2023/10/28 10:06:27;;;;;;;11.95;4.88;;;12.10;99.90;;;;;;5044788;28;20486;-55
2023/10/28 10:08:55;;;;;;;14.68;5.13;;;12.00;99.90;;;;;;5047134;28;20048;-56
2023/10/28 10:11:22;;;;;;;14.07;4.50;;;12.30;99.90;;;;;;5043905;28;20068;-54
2023/10/28 10:13:48;;;;;;;9.38;4.40;;;12.10;99.90;;;;;;5041769;28;20105;-55
2023/10/28 10:16:46;;;;;;;14.60;4.30;;;12.30;99.90;;;;;;5044302;28;20033;-53
2023/10/28 10:19:20;;;;;;;10.18;4.18;;;12.30;99.90;;;;;;5045972;28;20052;-54
2023/10/28 10:21:52;;;;;;;;;;;12.70;99.90;;;;;;5045356;28;20045;-55
2023/10/28 10:24:19;;;;;;;11.50;4.22;;;12.60;99.90;;;;;;5045702;28;20306;-57
2023/10/28 10:26:54;;;;;;;9.55;4.35;;;12.40;99.90;;;;;;5045675;28;20037;-53
2023/10/28 10:29:21;;;;;;;12.00;4.43;;;12.80;99.90;;;;;;5045241;28;20064;-51
2023/10/28 10:31:55;;;;;;;7.47;3.78;;;12.50;99.90;;;;;;5046297;28;20120;-54
2023/10/28 10:34:39;;;;;;;9.30;3.80;;;12.80;99.90;;;;;;5046306;28;20040;-51
2023/10/28 10:37:06;;;;;;;7.03;3.95;;;12.90;99.90;;;;;;5045791;28;20045;-53
2023/10/28 10:39:46;;;;;;;8.93;4.72;;;12.80;99.90;;;;;;5045280;28;20037;-56
2023/10/28 10:42:12;;;;;;;10.32;3.83;;;12.80;99.90;;;;;;5046548;28;20393;-51
2023/10/28 10:44:39;;;;;;;13.63;4.43;;;12.80;99.90;;;;;;5043272;28;20033;-56
2023/10/28 10:47:08;;;;;;;9.75;4.18;;;12.60;99.90;;;;;;5026817;28;20049;-56
2023/10/28 10:49:36;;;;;;;7.63;3.15;;;12.70;99.90;;;;;;5043441;28;20029;-52
2023/10/28 10:52:03;;;;;;;9.65;4.28;;;12.40;99.90;;;;;;5044536;28;20041;-57
2023/10/28 10:54:39;;;;;;;6.78;3.40;;;12.70;99.90;;;;;;5047038;28;20720;-51
2023/10/28 10:57:06;;;;;;;9.60;3.83;;;12.40;99.90;;;;;;5038405;28;20029;-55
2023/10/28 10:59:39;;;;;;;10.38;4.03;;;12.70;99.90;;;;;;5025135;28;20100;-53
2023/10/28 11:02:06;;;;;;;9.83;3.40;;;12.70;99.90;;;;;;5042412;28;20037;-52
2023/10/28 11:04:36;;;;;;;10.40;3.50;;;12.70;99.90;;;;;;5042819;28;20374;-55
2023/10/28 11:07:05;;;;;;;7.32;3.38;;;12.60;99.90;;;;;;5040826;28;20041;-60
2023/10/28 11:09:33;;;;;;;7.90;3.53;;;12.60;99.90;;;;;;5042982;28;20029;-55
2023/10/28 11:11:59;;;;;;;8.43;3.90;;;12.40;99.90;;;;;;5040248;28;20460;-54
2023/10/28 11:14:25;;;;;;;9.20;3.25;;;12.80;99.90;;;;;;5042295;28;20102;-54
2023/10/28 11:16:51;;;;;;;10.55;3.50;;;12.50;99.90;;;;;;5040355;28;20481;-53
2023/10/28 11:19:18;;;;;;;8.20;3.25;;;12.60;99.90;;;;;;5040790;28;20076;-54
2023/10/28 11:21:44;;;;;;;7.43;3.58;;;12.80;99.90;;;;;;5042387;28;20033;-56
2023/10/28 11:24:12;;;;;;;7.80;3.28;;;12.70;99.90;;;;;;5040663;28;20033;-54
2023/10/28 11:26:37;;;;;;;10.55;3.28;;;12.70;99.90;;;;;;5042083;28;20438;-53
2023/10/28 11:29:05;;;;;;;6.63;2.97;;;12.70;99.90;;;;;;5022870;28;20072;-55
2023/10/28 11:31:31;;;;;;;9.45;2.97;;;12.90;99.90;;;;;;5009603;28;20032;-54
2023/10/28 11:33:58;;;;;;;7.22;3.00;;;12.90;99.90;;;;;;5024959;28;20041;-55
2023/10/28 11:36:25;;;;;;;8.30;3.33;;;13.10;99.90;;;;;;5032979;28;20120;-56
2023/10/28 11:38:51;;;;;;;10.00;2.58;;;13.00;99.90;;;;;;5042169;28;20033;-54
2023/10/28 11:41:20;;;;;;;7.80;2.83;;;13.30;99.90;;;;;;5041833;28;20454;-54
2023/10/28 11:43:48;;;;;;;10.13;3.17;;;13.20;99.90;;;;;;5042906;28;20036;-55
2023/10/28 11:46:14;;;;;;;7.88;3.40;;;13.00;99.90;;;;;;5041378;28;20032;-55
2023/10/28 11:48:41;;;;;;;8.00;3.38;;;13.00;99.90;;;;;;5039624;28;20570;-54
2023/10/28 11:51:08;;;;;;;7.43;2.83;;;13.10;99.90;;;;;;5022487;28;20057;-56
2023/10/28 11:53:34;;;;;;;11.27;3.60;;;13.00;99.90;;;;;;5041016;28;20044;-56
2023/10/28 11:55:59;;;;;;;8.68;2.70;;;13.10;99.90;;;;;;5040119;28;20079;-55
2023/10/28 11:58:26;;;;;;;7.65;2.67;;;13.30;99.90;;;;;;5038387;28;20029;-53
2023/10/28 12:00:55;;;;;;;6.30;2.40;;;13.50;99.90;;;;;;5022309;28;20029;-54
2023/10/28 12:03:25;;;;;;;10.95;2.92;;;13.40;99.90;;;;;;5020340;28;20029;-54
2023/10/28 12:05:50;;;;;;;8.18;3.00;;;13.40;99.90;;;;;;5039257;28;20546;-57
2023/10/28 12:08:17;;;;;;;8.32;2.95;;;13.40;99.90;;;;;;5022771;28;20414;-56
2023/10/28 12:10:43;;;;;;;9.20;2.40;;;13.40;99.90;;;;;;5041071;28;20087;-55
2023/10/28 12:13:17;;;;;;;7.90;2.83;;;13.30;99.90;;;;;;5043234;28;20454;-51
2023/10/28 12:15:44;;;;;;;9.23;3.67;;;13.40;99.90;;;;;;5043996;28;20558;-55
2023/10/28 12:18:10;;;;;;;7.15;2.42;;;13.40;99.90;;;;;;5043966;28;20449;-54
2023/10/28 12:20:35;;;;;;;5.70;2.80;;;13.50;99.90;;;;;;5041946;28;20068;-53
2023/10/28 12:23:02;;;;;;;6.75;2.80;;;13.60;99.90;;;;;;5042844;28;20083;-58
2023/10/28 12:25:28;;;;;;;10.20;2.65;;;13.50;99.90;;;;;;5044098;28;21074;-55
2023/10/28 12:27:54;;;;;;;10.10;2.72;;;13.50;99.90;;;;;;5042668;28;20045;-54
2023/10/28 12:30:20;;;;;;;7.90;2.30;;;13.70;99.90;;;;;;5042583;28;20033;-54
2023/10/28 12:32:47;;;;;;;7.13;2.70;;;13.70;99.90;;;;;;5043121;28;20400;-54
2023/10/28 12:35:13;;;;;;;8.48;2.55;;;14.00;99.90;;;;;;5043120;28;20074;-57
2023/10/28 12:37:40;;;;;;;6.65;2.20;;;14.10;99.90;;;;;;5043195;28;20033;-54